Terminal Aerodrome Forecast
Issued by NWS Binghamton, NY

Home | Current Version | Previous Version | Text Only | Print | Product List | Glossary On
Versions: 1 2 3 4 5 6 7 8 9 10 11 12 13 14 15 16 17
000
FTUS41 KBGM 011600 AAA
TAFBGM
TAF AMD
KBGM 011623Z 0116/0212 19008KT 3SM -SN SCT025 OVC035
      TEMPO 0116/0120 1 1/2SM -SN OVC025
     FM012300 20005KT 3/4SM -SN OVC008
     FM020500 28005KT P6SM -SHSN SCT008 OVC012=

USA.gov is the U.S. government's official web portal to all federal, state and local government web resources and services.